AirNav   Pilot Hours Calculator
 
 993 users online  

KUWL New Castle Henry County Airport / Marlatt Field
New Castle, Indiana, USA

GOING TO NEW CASTLE?


FAA INFORMATION EFFECTIVE 25 MARCH 2021

Location

FAA Identifier: UWL
Lat/Long: 39-52-36.2000N 085-19-31.0000W
39-52.603333N 085-19.516667W
39.8767222,-85.3252778
(estimated)
Elevation: 1090.2 ft. / 332.3 m (surveyed)
Variation: 06W (2020)
From city: 4 miles SE of NEW CASTLE, IN
Time zone: UTC -4 (UTC -5 during Standard Time)
Zip code: 47362

Airport Operations

Airport use: Open to the public
Activation date: 09/1971
Control tower: no
ARTCC: INDIANAPOLIS CENTER
FSS: TERRE HAUTE FLIGHT SERVICE STATION
NOTAMs facility: HUF (NOTAM-D service available)
Attendance: 0800-1800
FOR FUEL WHEN ARPT UNATNDD PHONE 765-332-2969.
Wind indicator: lighted
Segmented circle: no
Lights: MIRL RY 10/28 PRESET ON LOW INTST; TO INCR INTST & ACTVT PAPI RYS 10 & 28; REIL RYS 10 & 28 - CTAF.
Beacon: white-green (lighted land airport)
Operates sunset to sunrise.

Airport Communications

CTAF/UNICOM: 123.05
INDIANAPOLIS APPROACH: 135.45
INDIANAPOLIS DEPARTURE: 135.45
WX AWOS-3 at CEV (14 nm SE): 118.325 (765-827-6649)
WX AWOS-3 at AID (19 nm NW): 128.55 (765-442-1245)

Nearby radio navigation aids

VOR radial/distance  VOR name  Freq  Var
MIEr175/21.9MUNCIE VOR/DME114.4003W
SHBr057/27.3SHELBYVILLE VOR/DME112.0001E

 
NDB name  Hdg/Dist  Freq  Var  ID
NEW CASTLEat field38506WUWL ..- .-- .-..
PNTHR308/10.822704WSQ ... --.-
VIDEO147/14.439403WAI .- ..
BATESVILLE359/32.025405WHLB .... .-.. -...
METROPOLITAN099/33.633803WUMP ..- -- .--.

Airport Services

Fuel available: 100LL JET-A
Parking: hangars and tiedowns
Airframe service: MINOR
Powerplant service: MINOR
Bottled oxygen: NONE

Runway Information

Runway 10/28

Dimensions: 4201 x 75 ft. / 1280 x 23 m
Surface: asphalt, in good condition
Runway edge lights: medium intensity
RUNWAY 10  RUNWAY 28
Latitude: 39-52.606323N39-52.601465N
Longitude: 085-19.966247W085-19.068143W
Elevation: 1080.1 ft.1090.1 ft.
Traffic pattern: leftleft
Runway heading: 096 magnetic, 090 true276 magnetic, 270 true
Markings: nonprecision, in good conditionnonprecision, in good condition
Visual slope indicator: 2-light PAPI on left (3.00 degrees glide path)2-light PAPI on left (3.00 degrees glide path)
Runway end identifier lights: yesyes
Touchdown point: yes, no lightsyes, no lights
Obstructions: none10 ft. crops, 210 ft. from runway, 1:1 slope to clear

Airport Ownership and Management from official FAA records

Ownership: Publicly-owned
Owner: NEW CASTLE/HENRY COUNTY
2912 E. CO. RD. 400 S.
NEW CASTLE, IN 47362
Phone 765-529-7903
AIRPORT OWNED BY MR. MARLATT, RUNWAY OWNED BY CITY OF NEW CASTLE, HENRY CO.
Manager: JOHN MARLATT
2912 E. CO. RD. 400 S.
NEW CASTLE, IN 47362
Phone 765-529-7903
OR 765-529-7909.

Airport Operational Statistics

Aircraft based on the field: 14
Single engine airplanes: 14
    
Aircraft operations: avg 43/week *
80% local general aviation
16% transient general aviation
4% air taxi
* for 12-month period ending 31 December 2018

Additional Remarks

FOR CD CTC INDIANAPOLIS APCH AT 317-227-5743.

Instrument Procedures

NOTE: All procedures below are presented as PDF files. If you need a reader for these files, you should download the free Adobe Reader.

NOT FOR NAVIGATION. Please procure official charts for flight.
FAA instrument procedures published for use from 25 March 2021 at 0901Z to 22 April 2021 at 0900z.

 
IAPs - Instrument Approach Procedures
RNAV (GPS) RWY 10   download (223KB)
RNAV (GPS) RWY 28   download (220KB)
NDB RWY 10   download (188KB)
NOTE: Special Take-Off Minimums/Departure Procedures apply   download (348KB)

Other nearby airports with instrument procedures:

KCEV - Mettel Field Airport (14 nm SE)
KAID - Anderson Municipal Airport-Darlington Field (19 nm NW)
KMIE - Delaware County Regional Airport (22 nm N)
KRID - Richmond Municipal Airport (23 nm E)
I22 - Randolph County Airport (25 nm NE)
 
Loc | Ops | Rwys | IFR | FBO | Links
Com | Nav | Svcs | Stats | Notes
Area around KUWL (New Castle Henry County Airport / Marlatt Field)
 
Road maps at: MapQuest Bing Google
 
Aerial photo
WARNING: Photo may not be current or correct
Aerial photo of KUWL (New Castle Henry County Airport / Marlatt Field)
Photo by Phil Brooks
Photo taken 30-Apr-2018
looking west.

Do you have a better or more recent aerial photo of New Castle Henry County Airport / Marlatt Field that you would like to share? If so, please send us your photo.

 
Sectional chart

 
Airport distance calculator
Flying to New Castle Henry County Airport / Marlatt Field? Find the distance to fly.

From to KUWL

Sunrise and sunset
Times for 15-Apr-2021
 Local
(UTC-4)
 Zulu
(UTC)
Morning civil twilight06:3710:37
Sunrise07:0511:05
Sunset20:1800:18
Evening civil twilight20:4600:46

Current date and time
Zulu (UTC)  16-Apr-2021 01:12:26
Local (UTC-4)  15-Apr-2021 21:12:26
 
METAR
KAID 
20nm NW 
160055Z AUTO 00000KT 10SM CLR 07/01 A3000 RMK AO2 T00700008
KMIE 
22nm N 
160053Z 29003KT 10SM CLR 07/01 A2999 RMK AO2 SLP154 T00720006
KRID 
23nm E 
160055Z AUTO 31009KT 10SM SCT036 OVC044 06/02 A2999 RMK AO2
KMQJ 
26nm W 
160055Z AUTO 00000KT 10SM CLR 06/03 A3000 RMK AO1
KGEZ 
28nm SW 
160053Z AUTO 02003KT 10SM CLR 09/01 A3000 RMK AO2 SLP161 T00890006
KHLB 
32nm S 
160055Z AUTO 00000KT 10SM FEW046 08/01 A3000 RMK A01
KOXD 
34nm SE 
160055Z AUTO 32010KT 10SM OVC045 08/05 A2999 RMK AO2 T00800046
KPLD 
38nm NE 
160035Z AUTO 32008KT 10SM OVC041 07/M02 A2996 RMK AO2
KHFY 
38nm SW 
152135Z AUTO 34011G14KT 10SM BKN045 11/02 A3000 RMK AO2 T01110015
TAF
KIND 
45nm W 
152013Z 1520/1624 32014G22KT P6SM BKN040 FM152100 32013KT P6SM SCT045 FM160100 32006KT P6SM SCT060 FM161600 33006KT P6SM SCT013 FM161800 33007KT P6SM SCT060
NOTAMs
Click for the latest NOTAMs
NOTAMs are issued by the DoD/FAA and will open in a separate window not controlled by AirNav.

 

 
 

FBO, Fuel Providers, and Aircraft Ground Support

  
 Business Name 
 
 Contact 
 
 Services / Description 
 
Fuel Prices
 
Comments
  
Sky Castle Aviation 765-529-7903
no information available

If you are affiliated with Sky Castle Aviation and would like to show here your services, contact info, web link, logo, and more, click here
100LL Jet A
FS $4.10 $3.00 
 Updated 08-Apr-2021
 
   1 read write
FS=Full service
Update Fuel Prices
 

Would you like to see your business listed on this page?

 If your business provides an interesting product or service to pilots, flight crews, aircraft, or users of the New Castle Henry County Airport / Marlatt Field, you should consider listing it here.  To start the listing process, click on the button below
 
Add a business
 

Other Pages about New Castle Henry County Airport / Marlatt Field

Update a link
 
Copyright © AirNav, LLC. All rights reserved. Privacy Policy  Contact